Eugene, OR

2:24 AM PST on December 25, 2014 (GMT -0800)
Newport Municipal | Change Station
CLOSE
Current Station
Airport
Location: Newport Airport,
Elevation: 157 ft
Nearby Weather Stations

Elev 157 ft 44.58 °N, 124.06 °W | Updated 9 minutes ago

Overcast
Overcast
46 °F
Feels Like 41 °F
N
12
Wind Variable Wind from NNW
Gusts 16 mph

Today
High -- | Low -- °F
--% Chance of Precip.
Yesterday
High -- | Low -- °F
Precip. -- in
7:45 AM 4:39 PM
Waxing Crescent, 15% visible
Pressure 30.20 in
Visibility 10.0 miles
Clouds Scattered Clouds 3100 ft
Scattered Clouds 3800 ft
Scattered Clouds 4700 ft
Windchill 41 °F
Dew Point 41 °F
Humidity 81%
Rainfall 0.00 in
Snow Depth Not available.
UV 0 out of 12
Pollen .50 out of 12
Air Quality Not available.
Flu Activity Not available.
METAR KONP 251015Z AUTO 34010G14KT 10SM -RA SCT031 SCT038 SCT047 08/05 A3020 RMK AO2

More Conditions Fewer Conditions

Pressure 30.20 in
Visibility 10.0 miles
Clouds Scattered Clouds 3100 ft
Scattered Clouds 3800 ft
Scattered Clouds 4700 ft
Windchill 41 °F
Dew Point 41 °F
Humidity 81%
Rainfall 0.00 in
Snow Depth Not available.
UV 0 out of 12
Pollen .50 out of 12
Air Quality Not available.
Flu Activity Not available.
METAR KONP 251015Z AUTO 34010G14KT 10SM -RA SCT031 SCT038 SCT047 08/05 A3020 RMK AO2

More Conditions Fewer Conditions

10-Day Weather Forecast

Almanac

Astronomy

Dec. 25, 2014 Rise Set
Actual Time
Civil Twilight
Nautical Twilight
Astronomical Twilight
Moon
Length of Visible Light
Length of Day
Tomorrow will be .
, % of the Moon is Illuminated

Today's Extremes

State Highs State Lows

Community

WunderPhotos

Upload Photos

1,780,254 photos uploaded!

WunderBlogs® & News

Nearby

Air Quality

  Air Quality AQ Index Pollutant
Not available.

Snow Depth

Station Depth Elevation

Earthquake Activity

City Distance Mag. Time & Date
Minimum magnitude displayed is 2.5.

Coastal Water Temperatures

Place Temperature

Nearby Weather Stations